Aérodrome :
LOGIN :

S'inscrire | Disclaimer

   EN    FR    IT 

 










Légende :    VFR   VFR Marginal   IFR   IFR Intensif   IFR Très Intensif
Visi : 
Plafond : 
>= 8 km
>= 3000ft
5 à 8 km
1000 à 3000 ft
1500m à 5 km
500 à 1000 ft
800 à 1500m
200 à 500 ft
< 800m
< 200 ft
Symboles :   Orages  Brouillard  Fortes neiges  Fortes précipitations  Vent > 20 kt
SIGMETs :   Divers  Orages  Givrage  Turbulence  Onde Orograph.  Cendres Volcan.







- Altitude de l'aérodrome : 245 ft
- Code IATA : BIQ
- Voir les cartes d'approche


LFBZ - Biarritz

DERNIER METAR :
  • 200230Z AUTO 16004KT 9999 FEW012 18/17 Q1021 TEMPO 3000 BR BKN010

METARs EXPIRÉS :
  • 200200Z AUTO 15003KT 9999 FEW012 18/17 Q1022 TEMPO 3000 BR BKN010
  • 200130Z AUTO 21001KT 9999 FEW040 19/17 Q1022 TEMPO 3000 BR BKN010
  • 200100Z AUTO 23002KT 9999 BKN041 19/18 Q1022 NOSIG
  • 200030Z AUTO 20002KT 9999 BKN041 19/18 Q1022 NOSIG
  • 200000Z AUTO 20002KT 9999 BKN043 20/18 Q1022 NOSIG

TAF TAF LFBZ
Valide du 20 à 00h jusqu'au 21 à 00h UTC


192300Z 2000/2024 VRB03KT 9999 SCT030
TEMPO 2003/2006 3000 BR BKN010
TEMPO 2008/2011 09010KT
BECMG 2011/2013 33010KT CAVOK
BECMG 2017/2019 27012KT
Pas de NOTAMs connus pour ce terrain.



MET'MAP, la Météo Aéronautique d'un coup d'oeil ! - Copyright ORBIFLY Décembre 2007 - Disclaimer

ORBIFLY MET'MAP TEAM :

Programmation & Développement : Alexandra Zaïnal
Conception & Développement : Baudouin d'Aumeries
Co-Programmation & Développement : Marc-Olivier Méhu
Soutien technique & logistique : Manuel Goepfert

Contact : metmap@orbifly.com




SOURCES & CREDITS :

   NOAA